Time;durP1;ratioP1;P1;durP2;ratioP2;P2;SDS_P1;SDS_P2;PMS_P1;PMS_P2;Temp;Humidity;BMP_temperature;BMP_pressure;BME280_temperature;BME280_humidity;BME280_pressure;Samples;Min_cycle;Max_cycle;Signal;HPM_P1;HPM_P2
2023/04/01 00:01:57;;;;;;;3.03;1.17;;;8.30;99.90;;;;;;5092596;28;20253;-73
2023/04/01 00:04:23;;;;;;;4.23;1.33;;;8.30;99.90;;;;;;5092750;28;20192;-74
2023/04/01 00:06:51;;;;;;;1.93;1.23;;;8.20;99.90;;;;;;5092523;28;20592;-74
2023/04/01 00:09:18;;;;;;;4.70;1.30;;;8.20;99.90;;;;;;5092488;28;20208;-73
2023/04/01 00:11:45;;;;;;;2.93;1.40;;;8.10;99.90;;;;;;5092458;28;20235;-73
2023/04/01 00:14:13;;;;;;;3.00;1.10;;;8.00;99.90;;;;;;5092356;28;20555;-73
2023/04/01 00:16:40;;;;;;;1.77;1.13;;;8.00;99.90;;;;;;5092203;28;20252;-73
2023/04/01 00:19:06;;;;;;;2.70;1.20;;;8.00;99.90;;;;;;5092472;28;20279;-73
2023/04/01 00:21:33;;;;;;;4.53;1.40;;;8.00;99.90;;;;;;5092232;28;20652;-73
2023/04/01 00:24:00;;;;;;;2.30;1.27;;;8.00;99.90;;;;;;5092344;28;20587;-73
2023/04/01 00:26:26;;;;;;;2.77;1.33;;;8.00;99.90;;;;;;5092279;28;20224;-73
2023/04/01 00:28:54;;;;;;;5.63;1.20;;;8.00;99.90;;;;;;5091918;28;20234;-73
2023/04/01 00:31:21;;;;;;;2.73;1.30;;;7.90;99.90;;;;;;5093772;28;20203;-73
2023/04/01 00:33:48;;;;;;;4.03;1.23;;;8.00;99.90;;;;;;5095980;28;20251;-73
2023/04/01 00:36:17;;;;;;;2.50;1.20;;;8.10;99.90;;;;;;5096005;28;20227;-73
2023/04/01 00:38:44;;;;;;;1.43;1.20;;;8.10;99.90;;;;;;5095997;28;20228;-73
2023/04/01 00:41:14;;;;;;;2.00;1.07;;;8.20;99.90;;;;;;5095730;28;20592;-73
2023/04/01 00:43:41;;;;;;;1.30;1.17;;;8.10;99.90;;;;;;5095767;28;20528;-73
2023/04/01 00:46:09;;;;;;;3.60;1.10;;;8.20;99.90;;;;;;5095708;28;20706;-73
2023/04/01 00:48:40;;;;;;;3.37;1.20;;;8.20;99.90;;;;;;5095867;28;20200;-73
2023/04/01 00:51:10;;;;;;;2.20;1.23;;;8.20;99.90;;;;;;5095823;28;20204;-73
2023/04/01 00:53:40;;;;;;;2.20;1.30;;;8.20;99.90;;;;;;5095571;28;20238;-73
2023/04/01 00:56:11;;;;;;;2.87;1.20;;;8.20;99.90;;;;;;5095481;28;20586;-72
2023/04/01 00:58:42;;;;;;;2.70;1.20;;;8.30;99.90;;;;;;5095535;28;20258;-72
2023/04/01 01:01:10;;;;;;;2.40;1.07;;;8.20;99.90;;;;;;5095672;28;20242;-72
2023/04/01 01:03:38;;;;;;;1.80;1.00;;;8.30;99.90;;;;;;5095541;28;20203;-72
2023/04/01 01:06:21;;;;;;;2.10;1.00;;;8.30;99.90;;;;;;5095384;28;20704;-72
2023/04/01 01:09:09;;;;;;;2.07;1.07;;;8.30;99.90;;;;;;5095159;28;20256;-72
2023/04/01 01:11:40;;;;;;;1.77;1.00;;;8.30;99.90;;;;;;5095338;28;20630;-72
2023/04/01 01:14:16;;;;;;;1.33;0.80;;;8.30;99.90;;;;;;5095059;28;20656;-72
2023/04/01 01:16:46;;;;;;;2.10;1.10;;;8.30;99.90;;;;;;5095141;28;20295;-72
2023/04/01 01:19:34;;;;;;;3.50;1.10;;;8.20;99.90;;;;;;5095188;28;20224;-73
2023/04/01 01:22:16;;;;;;;2.13;1.17;;;8.20;99.90;;;;;;5095132;28;20667;-73
2023/04/01 01:24:55;;;;;;;1.73;1.00;;;8.30;99.90;;;;;;5095173;28;20246;-73
2023/04/01 01:27:23;;;;;;;3.23;1.07;;;8.20;99.90;;;;;;5094977;28;20192;-73
2023/04/01 01:30:27;;;;;;;2.73;1.10;;;8.20;99.90;;;;;;5095112;28;20227;-72
2023/04/01 01:33:10;;;;;;;2.80;1.27;;;8.20;99.90;;;;;;5069634;28;20203;-73
2023/04/01 01:35:41;;;;;;;2.57;1.00;;;8.20;99.90;;;;;;5094774;28;20196;-72
2023/04/01 01:38:11;;;;;;;2.27;0.90;;;8.20;99.90;;;;;;5094870;28;20264;-72
2023/04/01 01:40:42;;;;;;;2.77;1.33;;;8.20;99.90;;;;;;5094923;28;20238;-72
2023/04/01 01:43:13;;;;;;;1.63;0.87;;;8.20;99.90;;;;;;5094472;28;20231;-72
2023/04/01 01:45:45;;;;;;;1.47;0.90;;;8.20;99.90;;;;;;5094700;28;20228;-72
2023/04/01 01:48:12;;;;;;;3.03;1.30;;;8.10;99.90;;;;;;5094515;28;20210;-72
2023/04/01 01:50:42;;;;;;;2.17;1.00;;;8.10;99.90;;;;;;5094439;28;20677;-72
2023/04/01 01:53:11;;;;;;;3.07;0.97;;;8.20;99.90;;;;;;5094608;28;20231;-72
2023/04/01 01:55:40;;;;;;;3.93;1.53;;;8.20;99.90;;;;;;5094573;28;20226;-72
2023/04/01 01:58:12;;;;;;;4.77;2.00;;;8.10;99.90;;;;;;5094318;28;20285;-73
2023/04/01 02:00:40;;;;;;;1.63;1.00;;;8.20;99.90;;;;;;5094163;28;20226;-72
2023/04/01 02:03:06;;;;;;;1.63;1.00;;;8.20;99.90;;;;;;5094463;28;20205;-72
2023/04/01 02:05:33;;;;;;;3.70;1.20;;;8.20;99.90;;;;;;5094687;28;20231;-72
2023/04/01 02:08:08;;;;;;;3.10;1.10;;;8.20;99.90;;;;;;5094290;28;20196;-72
2023/04/01 02:10:38;;;;;;;2.67;0.90;;;8.20;99.90;;;;;;5094146;28;20698;-73
2023/04/01 02:13:10;;;;;;;3.27;1.00;;;8.20;99.90;;;;;;5094094;28;20647;-72
2023/04/01 02:15:43;;;;;;;1.57;0.90;;;8.10;99.90;;;;;;5094305;28;20239;-73
2023/04/01 02:18:11;;;;;;;4.33;1.43;;;8.10;99.90;;;;;;5094074;28;20252;-73
2023/04/01 02:20:39;;;;;;;1.83;1.10;;;8.10;99.90;;;;;;5094454;28;20227;-73
2023/04/01 02:23:09;;;;;;;2.50;0.97;;;8.10;99.90;;;;;;5094146;28;20291;-72
2023/04/01 02:25:38;;;;;;;2.40;1.10;;;8.10;99.90;;;;;;5094211;28;20200;-73
2023/04/01 02:28:06;;;;;;;2.70;1.00;;;8.10;99.90;;;;;;5094040;28;20628;-72
2023/04/01 02:30:35;;;;;;;4.17;1.20;;;8.10;99.90;;;;;;5093801;28;20269;-72
2023/04/01 02:33:03;;;;;;;3.20;1.20;;;8.10;99.90;;;;;;5093771;28;20282;-72
2023/04/01 02:35:30;;;;;;;5.57;1.40;;;8.10;99.90;;;;;;5093842;28;20250;-72
2023/04/01 02:37:57;;;;;;;2.00;1.10;;;8.10;99.90;;;;;;5093510;28;20664;-73
2023/04/01 02:40:25;;;;;;;2.77;1.20;;;8.10;99.90;;;;;;5093705;28;20345;-72
2023/04/01 02:42:51;;;;;;;1.77;1.10;;;8.20;99.90;;;;;;5093785;28;20249;-73
2023/04/01 02:45:18;;;;;;;2.60;1.27;;;8.20;99.90;;;;;;5093555;28;20203;-73
2023/04/01 02:47:45;;;;;;;3.00;1.30;;;8.20;99.90;;;;;;5093498;28;20228;-72
2023/04/01 02:50:12;;;;;;;4.13;1.23;;;8.10;99.90;;;;;;5093466;28;20239;-71
2023/04/01 02:52:38;;;;;;;5.10;1.40;;;8.10;99.90;;;;;;5093334;28;20216;-71
2023/04/01 02:55:06;;;;;;;3.30;1.30;;;8.10;99.90;;;;;;5092678;28;20235;-72
2023/04/01 02:57:34;;;;;;;2.53;1.17;;;8.20;99.90;;;;;;5093110;28;20263;-72
2023/04/01 03:00:00;;;;;;;3.37;1.10;;;8.20;99.90;;;;;;5093265;28;20192;-72
2023/04/01 03:02:27;;;;;;;4.10;1.30;;;8.10;99.90;;;;;;5093072;28;20258;-71
2023/04/01 03:04:54;;;;;;;3.47;1.37;;;8.10;99.90;;;;;;5093055;28;20204;-72
2023/04/01 03:07:20;;;;;;;3.87;1.20;;;8.10;99.90;;;;;;5093180;28;20204;-72
2023/04/01 03:09:47;;;;;;;2.93;1.10;;;8.10;99.90;;;;;;5093168;28;20239;-72
2023/04/01 03:12:13;;;;;;;3.43;1.33;;;8.10;99.90;;;;;;5093206;28;20642;-72
2023/04/01 03:14:41;;;;;;;3.57;1.33;;;8.10;99.90;;;;;;5093178;28;20275;-72
2023/04/01 03:17:08;;;;;;;3.13;1.40;;;8.00;99.90;;;;;;5092980;28;20248;-72
2023/04/01 03:19:34;;;;;;;6.00;1.10;;;8.00;99.90;;;;;;5092906;28;20204;-72
2023/04/01 03:22:01;;;;;;;3.30;1.10;;;8.00;99.90;;;;;;5092785;28;20197;-72
2023/04/01 03:24:27;;;;;;;3.93;1.30;;;8.10;99.90;;;;;;5093116;28;20238;-72
2023/04/01 03:26:54;;;;;;;3.07;1.33;;;8.00;99.90;;;;;;5093032;28;20235;-72
2023/04/01 03:29:21;;;;;;;2.40;0.90;;;8.00;99.90;;;;;;5092807;28;20233;-72
2023/04/01 03:31:49;;;;;;;4.87;1.33;;;8.10;99.90;;;;;;5092737;28;20197;-72
2023/04/01 03:34:15;;;;;;;5.20;1.30;;;8.00;99.90;;;;;;5092412;28;20579;-72
2023/04/01 03:36:42;;;;;;;2.63;1.20;;;7.90;99.90;;;;;;5092960;28;20224;-71
2023/04/01 03:39:08;;;;;;;5.30;1.20;;;7.80;99.90;;;;;;5092880;28;20361;-71
2023/04/01 03:41:36;;;;;;;3.20;1.30;;;7.80;99.90;;;;;;5092941;28;20224;-71
2023/04/01 03:44:03;;;;;;;3.13;1.30;;;7.70;99.90;;;;;;5092800;28;20195;-72
2023/04/01 03:46:30;;;;;;;3.67;1.33;;;7.70;99.90;;;;;;5092809;28;20239;-72
2023/04/01 03:48:58;;;;;;;3.80;1.20;;;7.80;99.90;;;;;;5092677;28;20604;-72
2023/04/01 03:51:24;;;;;;;3.97;1.50;;;7.80;99.90;;;;;;5092980;28;20195;-72
2023/04/01 03:53:51;;;;;;;3.10;1.17;;;7.70;99.90;;;;;;5092898;28;20250;-72
2023/04/01 03:56:18;;;;;;;2.50;1.30;;;7.70;99.90;;;;;;5092790;28;20231;-72
2023/04/01 03:58:44;;;;;;;3.77;1.33;;;7.80;99.90;;;;;;5092644;28;20681;-73
2023/04/01 04:01:16;;;;;;;4.33;1.10;;;7.70;99.90;;;;;;5092675;28;20246;-72
2023/04/01 04:03:43;;;;;;;1.60;0.90;;;7.70;99.90;;;;;;5092461;28;20675;-72
2023/04/01 04:06:13;;;;;;;3.63;1.50;;;7.70;99.90;;;;;;5095730;28;20207;-72
2023/04/01 04:08:40;;;;;;;3.80;1.20;;;7.70;99.90;;;;;;5096720;28;20667;-72
2023/04/01 04:11:07;;;;;;;3.40;1.10;;;7.70;99.90;;;;;;5096473;28;20197;-72
2023/04/01 04:13:33;;;;;;;3.70;1.30;;;7.70;99.90;;;;;;5096374;28;20258;-72
2023/04/01 04:16:00;;;;;;;2.83;1.20;;;7.70;99.90;;;;;;5096250;28;20678;-72
2023/04/01 04:18:26;;;;;;;2.30;1.00;;;7.70;99.90;;;;;;5096118;28;20220;-72
2023/04/01 04:20:53;;;;;;;3.00;1.20;;;7.70;99.90;;;;;;5096261;28;20608;-72
2023/04/01 04:23:21;;;;;;;2.93;1.50;;;7.70;99.90;;;;;;5096333;28;20259;-73
2023/04/01 04:25:56;;;;;;;1.87;1.03;;;7.70;99.90;;;;;;5096241;28;20246;-72
2023/04/01 04:28:23;;;;;;;4.53;1.20;;;7.70;99.90;;;;;;5096123;28;20204;-72
2023/04/01 04:30:49;;;;;;;2.10;1.10;;;7.70;99.90;;;;;;5096058;28;20333;-72
2023/04/01 04:33:16;;;;;;;2.73;1.10;;;7.70;99.90;;;;;;5095998;28;20267;-72
2023/04/01 04:35:43;;;;;;;4.03;1.10;;;7.70;99.90;;;;;;5096187;28;20235;-72
2023/04/01 04:38:10;;;;;;;1.57;0.90;;;7.70;99.90;;;;;;5096252;28;20294;-73
2023/04/01 04:40:38;;;;;;;3.03;1.20;;;7.70;99.90;;;;;;5096051;28;20192;-72
2023/04/01 04:43:06;;;;;;;2.20;1.07;;;7.70;99.90;;;;;;5095750;28;20199;-72
2023/04/01 04:45:33;;;;;;;3.93;1.10;;;7.70;99.90;;;;;;5095861;28;20228;-72
2023/04/01 04:47:59;;;;;;;3.23;1.07;;;7.70;99.90;;;;;;5095991;28;20699;-72
2023/04/01 04:50:26;;;;;;;4.27;1.10;;;7.70;99.90;;;;;;5095761;28;20219;-72
2023/04/01 04:52:52;;;;;;;2.77;1.07;;;7.60;99.90;;;;;;5095468;28;20239;-72
2023/04/01 04:55:19;;;;;;;2.77;0.80;;;7.60;99.90;;;;;;5095684;28;20602;-72
2023/04/01 04:57:47;;;;;;;3.47;1.13;;;7.60;99.90;;;;;;5095735;28;20230;-73
2023/04/01 05:00:14;;;;;;;4.07;1.00;;;7.60;99.90;;;;;;5095688;28;20224;-73
2023/04/01 05:02:41;;;;;;;2.87;0.97;;;7.60;99.90;;;;;;5095644;28;20200;-72
2023/04/01 05:05:08;;;;;;;3.43;0.80;;;7.60;99.90;;;;;;5095562;28;20264;-72
2023/04/01 05:07:35;;;;;;;1.80;0.83;;;7.60;99.90;;;;;;5095528;28;20709;-72
2023/04/01 05:10:01;;;;;;;1.93;0.90;;;7.60;99.90;;;;;;5095359;28;20752;-71
2023/04/01 05:12:28;;;;;;;2.00;0.90;;;7.60;99.90;;;;;;5094993;28;20242;-72
2023/04/01 05:14:56;;;;;;;2.30;0.80;;;7.60;99.90;;;;;;5095348;28;20197;-72
2023/04/01 05:17:23;;;;;;;1.67;1.00;;;7.60;99.90;;;;;;5094461;28;20201;-72
2023/04/01 05:19:49;;;;;;;2.23;1.03;;;7.60;99.90;;;;;;5095091;28;20231;-71
2023/04/01 05:22:16;;;;;;;1.70;1.00;;;7.60;99.90;;;;;;5095279;28;20747;-72
2023/04/01 05:24:42;;;;;;;3.30;0.97;;;7.70;99.90;;;;;;5095038;28;20257;-72
2023/04/01 05:27:09;;;;;;;2.67;0.90;;;7.60;99.90;;;;;;5095056;28;20223;-72
2023/04/01 05:29:36;;;;;;;2.20;0.83;;;7.60;99.90;;;;;;5095113;28;20204;-71
2023/04/01 05:32:04;;;;;;;1.13;0.80;;;7.70;99.90;;;;;;5095113;28;20200;-72
2023/04/01 05:34:30;;;;;;;2.77;0.87;;;7.60;99.90;;;;;;5094508;28;20262;-72
2023/04/01 05:36:57;;;;;;;2.67;0.80;;;7.60;99.90;;;;;;5094838;28;20228;-73
2023/04/01 05:39:24;;;;;;;1.67;0.90;;;7.60;99.90;;;;;;5095031;28;20259;-72
2023/04/01 05:41:50;;;;;;;1.80;0.90;;;7.60;99.90;;;;;;5094893;28;20587;-72
2023/04/01 05:44:17;;;;;;;2.17;0.90;;;7.70;99.90;;;;;;5094564;28;20228;-72
2023/04/01 05:46:43;;;;;;;1.43;1.00;;;7.70;99.90;;;;;;5094878;28;20242;-73
2023/04/01 05:49:11;;;;;;;2.73;1.00;;;7.70;99.90;;;;;;5094590;28;20232;-72
2023/04/01 05:51:38;;;;;;;2.97;1.17;;;7.70;99.90;;;;;;5094657;28;20227;-72
2023/04/01 05:54:05;;;;;;;1.70;1.27;;;7.80;99.90;;;;;;5094758;28;20714;-73
2023/04/01 05:56:32;;;;;;;2.57;0.97;;;7.80;99.90;;;;;;5094645;28;20228;-72
2023/04/01 05:58:59;;;;;;;2.33;1.00;;;7.70;99.90;;;;;;5094094;28;20239;-72
2023/04/01 06:01:25;;;;;;;1.90;1.00;;;7.90;99.90;;;;;;5094439;28;20565;-72
2023/04/01 06:03:52;;;;;;;2.83;0.90;;;7.90;99.90;;;;;;5094348;28;20236;-72
2023/04/01 06:06:25;;;;;;;1.70;1.10;;;8.00;99.90;;;;;;5094497;28;20242;-72
2023/04/01 06:08:52;;;;;;;1.80;0.93;;;7.90;99.90;;;;;;5094096;28;20193;-72
2023/04/01 06:11:30;;;;;;;2.53;1.00;;;8.00;99.90;;;;;;5094486;28;20200;-72
2023/04/01 06:14:20;;;;;;;1.43;1.13;;;8.00;99.90;;;;;;5094309;28;20238;-72
2023/04/01 06:17:02;;;;;;;2.27;0.90;;;8.00;99.90;;;;;;5094068;28;20235;-72
2023/04/01 06:19:39;;;;;;;1.77;0.80;;;8.00;99.90;;;;;;5093886;28;20265;-73
2023/04/01 06:22:33;;;;;;;2.47;1.17;;;8.00;99.90;;;;;;5094080;28;20200;-72
2023/04/01 06:25:31;;;;;;;2.60;1.00;;;8.10;99.90;;;;;;5093807;28;20228;-72
2023/04/01 06:28:19;;;;;;;1.00;0.90;;;8.20;99.90;;;;;;5093329;28;20195;-72
2023/04/01 06:30:49;;;;;;;2.40;0.90;;;8.20;99.90;;;;;;5093847;28;20231;-73
2023/04/01 06:33:28;;;;;;;2.47;1.20;;;8.40;99.90;;;;;;5093302;28;20269;-72
2023/04/01 06:36:24;;;;;;;1.73;1.63;;;8.40;99.90;;;;;;5093792;28;20204;-72
2023/04/01 06:39:07;;;;;;;1.40;1.10;;;8.50;99.90;;;;;;5085008;28;20277;-72
2023/04/01 06:42:04;;;;;;;9.40;6.67;;;8.70;99.90;;;;;;5093674;28;20236;-72
2023/04/01 06:44:40;;;;;;;1.10;0.70;;;8.70;99.90;;;;;;5082906;28;20263;-72
2023/04/01 06:47:28;;;;;;;2.13;1.60;;;8.80;99.90;;;;;;5094082;28;20231;-72
2023/04/01 06:50:04;;;;;;;3.07;1.27;;;9.00;99.90;;;;;;5093492;28;20200;-72
2023/04/01 06:52:43;;;;;;;3.90;1.67;;;8.90;99.90;;;;;;5093529;28;20231;-72
2023/04/01 06:55:26;;;;;;;4.07;1.37;;;8.70;99.90;;;;;;5093606;28;20238;-73
2023/04/01 06:57:56;;;;;;;2.00;1.00;;;8.70;99.90;;;;;;5092964;28;20201;-72
2023/04/01 07:00:30;;;;;;;1.80;1.10;;;8.70;99.90;;;;;;5093248;28;20201;-72
2023/04/01 07:03:05;;;;;;;2.10;1.00;;;8.70;99.90;;;;;;5093255;28;20278;-71
2023/04/01 07:05:35;;;;;;;2.03;1.03;;;8.80;99.90;;;;;;5093653;28;20223;-71
2023/04/01 07:08:05;;;;;;;1.27;0.90;;;8.90;99.90;;;;;;5093245;28;20211;-71
2023/04/01 07:10:43;;;;;;;3.00;1.23;;;8.90;99.90;;;;;;5092907;28;20200;-72
2023/04/01 07:13:15;;;;;;;1.27;0.93;;;9.00;99.90;;;;;;5093038;28;20200;-72
2023/04/01 07:15:44;;;;;;;4.03;1.20;;;9.00;99.90;;;;;;5093185;28;20236;-72
2023/04/01 07:18:16;;;;;;;2.90;1.00;;;9.20;99.90;;;;;;5092691;28;20231;-72
2023/04/01 07:20:43;;;;;;;2.43;1.20;;;9.10;99.90;;;;;;5093051;28;20216;-71
2023/04/01 07:23:17;;;;;;;1.93;1.00;;;9.10;99.90;;;;;;5092824;28;20234;-72
2023/04/01 07:25:48;;;;;;;1.83;0.87;;;9.20;99.90;;;;;;5092802;28;20264;-71
2023/04/01 07:28:17;;;;;;;1.93;0.90;;;9.30;99.90;;;;;;5092782;28;20200;-71
2023/04/01 07:30:53;;;;;;;2.10;1.10;;;9.40;99.90;;;;;;5092973;28;20203;-72
2023/04/01 07:33:26;;;;;;;1.40;0.87;;;9.70;99.90;;;;;;5092722;28;20702;-71
2023/04/01 07:35:59;;;;;;;0.97;0.77;;;9.70;99.90;;;;;;5092325;28;20193;-72
2023/04/01 07:38:37;;;;;;;0.97;0.70;;;9.70;99.90;;;;;;5092640;28;20216;-72
2023/04/01 07:41:13;;;;;;;0.87;0.70;;;9.60;99.90;;;;;;5092405;28;20227;-71
2023/04/01 07:43:48;;;;;;;2.57;1.17;;;9.30;99.90;;;;;;5092445;28;20646;-71
2023/04/01 07:46:33;;;;;;;4.57;1.10;;;9.50;99.90;;;;;;5092525;28;20231;-72
2023/04/01 07:49:08;;;;;;;2.37;1.10;;;9.50;99.90;;;;;;5092789;28;20257;-71
2023/04/01 07:51:42;;;;;;;0.93;0.87;;;9.40;99.90;;;;;;5092787;28;20593;-72
2023/04/01 07:54:13;;;;;;;2.63;1.10;;;9.50;99.90;;;;;;5092521;28;20246;-72
2023/04/01 07:56:46;;;;;;;2.33;1.20;;;9.60;99.90;;;;;;5092479;28;20729;-72
2023/04/01 07:59:22;;;;;;;2.13;1.20;;;9.60;99.90;;;;;;5092244;28;20288;-71
2023/04/01 08:01:56;;;;;;;0.70;0.70;;;9.40;99.90;;;;;;5092571;28;20226;-71
2023/04/01 08:04:33;;;;;;;1.30;1.00;;;9.50;99.90;;;;;;5092417;28;20333;-72
2023/04/01 08:07:09;;;;;;;1.27;0.80;;;9.50;99.90;;;;;;5092248;28;20231;-72
2023/04/01 08:09:44;;;;;;;1.17;0.80;;;9.70;99.90;;;;;;5092232;28;20682;-72
2023/04/01 08:12:24;;;;;;;1.37;0.90;;;9.60;99.90;;;;;;5092517;28;20227;-71
2023/04/01 08:15:03;;;;;;;2.43;1.67;;;9.70;99.90;;;;;;5092389;28;20196;-71
2023/04/01 08:17:37;;;;;;;1.93;1.20;;;9.80;99.90;;;;;;5092166;28;20232;-71
2023/04/01 08:20:18;;;;;;;1.77;0.80;;;9.80;99.90;;;;;;5092343;28;20255;-72
2023/04/01 08:22:50;;;;;;;1.93;0.90;;;9.90;99.90;;;;;;5092067;28;20777;-71
2023/04/01 08:25:21;;;;;;;1.33;0.90;;;9.80;99.90;;;;;;5092123;28;20200;-72
2023/04/01 08:27:52;;;;;;;1.90;0.90;;;9.70;99.90;;;;;;5092090;28;20627;-71
2023/04/01 08:30:22;;;;;;;2.03;0.90;;;9.50;99.90;;;;;;5091928;28;20701;-72
2023/04/01 08:32:51;;;;;;;1.80;0.90;;;9.70;99.90;;;;;;5092252;28;20207;-72
2023/04/01 08:35:27;;;;;;;3.50;1.13;;;9.70;99.90;;;;;;5092130;28;20529;-71
2023/04/01 08:37:55;;;;;;;0.83;0.73;;;9.70;99.90;;;;;;5092312;28;20207;-72
2023/04/01 08:40:58;;;;;;;1.00;0.80;;;9.60;99.90;;;;;;5092024;28;20792;-72
2023/04/01 08:43:42;;;;;;;1.23;0.80;;;9.60;99.90;;;;;;5039472;28;20667;-72
2023/04/01 08:46:30;;;;;;;4.20;0.90;;;9.60;99.90;;;;;;5092081;28;20224;-72
2023/04/01 08:49:14;;;;;;;1.47;1.00;;;9.60;99.90;;;;;;5092017;28;20602;-72
2023/04/01 08:52:14;;;;;;;1.20;0.90;;;9.50;99.90;;;;;;5092526;28;20277;-72
2023/04/01 08:55:16;;;;;;;1.23;0.80;;;9.50;99.90;;;;;;5095665;28;20211;-72
2023/04/01 08:57:56;;;;;;;4.17;2.27;;;9.50;99.90;;;;;;5062557;28;20231;-72
2023/04/01 09:00:31;;;;;;;1.00;0.87;;;9.60;99.90;;;;;;5095547;28;20252;-71
2023/04/01 09:03:22;;;;;;;2.40;1.10;;;9.50;99.90;;;;;;5095737;28;20200;-72
2023/04/01 09:06:18;;;;;;;1.53;1.07;;;9.60;99.90;;;;;;5095441;28;20224;-72
2023/04/01 09:09:02;;;;;;;2.07;1.00;;;9.60;99.90;;;;;;5090900;28;20228;-71
2023/04/01 09:11:39;;;;;;;1.90;0.70;;;9.50;99.90;;;;;;5095418;28;20234;-72
2023/04/01 09:14:24;;;;;;;0.80;0.77;;;9.20;99.90;;;;;;5095349;28;20196;-72
2023/04/01 09:17:19;;;;;;;1.60;1.20;;;9.20;99.90;;;;;;5095265;28;20691;-72
2023/04/01 09:20:04;;;;;;;2.17;1.80;;;8.90;99.90;;;;;;5095093;28;20223;-73
2023/04/01 09:22:43;;;;;;;5.47;2.77;;;8.90;99.90;;;;;;5095063;28;20280;-74
2023/04/01 09:25:39;;;;;;;1.10;1.10;;;8.90;99.90;;;;;;5095228;28;20195;-74
2023/04/01 09:28:13;;;;;;;0.90;0.80;;;8.90;99.90;;;;;;5094794;28;20220;-74
2023/04/01 09:31:05;;;;;;;1.00;0.90;;;8.70;99.90;;;;;;5094898;28;20239;-74
2023/04/01 09:34:10;;;;;;;0.70;0.70;;;8.70;99.90;;;;;;5095054;28;20263;-75
2023/04/01 09:36:46;;;;;;;3.07;1.00;;;8.60;99.90;;;;;;5070483;28;20242;-74
2023/04/01 09:39:36;;;;;;;1.00;0.80;;;8.50;99.90;;;;;;5094652;28;20234;-74
2023/04/01 09:42:27;;;;;;;1.83;1.17;;;8.30;99.90;;;;;;5094812;28;20320;-73
2023/04/01 09:44:59;;;;;;;4.13;1.10;;;8.20;99.90;;;;;;5094459;28;20249;-73
2023/04/01 09:47:51;;;;;;;1.20;1.00;;;8.10;99.90;;;;;;5094824;28;20207;-73
2023/04/01 09:50:32;;;;;;;1.00;0.90;;;8.10;99.90;;;;;;5094591;28;20231;-74
2023/04/01 09:53:12;;;;;;;1.10;0.70;;;8.30;99.90;;;;;;5094568;28;20230;-73
2023/04/01 09:56:06;;;;;;;1.87;1.30;;;8.30;99.90;;;;;;5094386;28;20235;-74
2023/04/01 09:59:15;;;;;;;1.40;0.97;;;8.40;99.90;;;;;;5094367;28;20262;-74
2023/04/01 10:02:09;;;;;;;0.90;0.90;;;8.50;99.90;;;;;;5073952;28;20548;-73
2023/04/01 10:05:20;;;;;;;2.27;1.40;;;8.70;99.90;;;;;;5094169;28;20253;-73
2023/04/01 10:08:29;;;;;;;0.80;0.77;;;8.80;99.90;;;;;;5094298;28;20231;-73
2023/04/01 10:11:26;;;;;;;1.67;1.00;;;8.80;99.90;;;;;;5094352;28;20203;-73
2023/04/01 10:14:17;;;;;;;7.23;4.37;;;8.80;99.90;;;;;;5094106;28;20634;-73
2023/04/01 10:17:08;;;;;;;1.47;1.27;;;8.80;99.90;;;;;;5093893;28;20741;-73
2023/04/01 10:20:09;;;;;;;3.27;1.60;;;8.80;99.90;;;;;;5093858;28;20278;-73
2023/04/01 10:22:57;;;;;;;2.00;1.37;;;8.60;99.90;;;;;;5093908;28;20255;-73
2023/04/01 10:26:11;;;;;;;2.87;1.70;;;8.50;99.90;;;;;;5094125;28;20196;-73
2023/04/01 10:28:59;;;;;;;1.87;1.10;;;8.60;99.90;;;;;;5094027;28;20249;-73
2023/04/01 10:31:46;;;;;;;1.10;0.90;;;8.50;99.90;;;;;;5093988;28;20204;-73
2023/04/01 10:34:41;;;;;;;3.57;2.23;;;8.30;99.90;;;;;;5093828;28;20267;-73
2023/04/01 10:37:24;;;;;;;2.30;1.70;;;8.40;99.90;;;;;;5093815;28;20219;-74
2023/04/01 10:40:27;;;;;;;2.07;0.70;;;8.50;99.90;;;;;;5093680;28;20256;-73
2023/04/01 10:43:15;;;;;;;0.93;0.90;;;8.40;99.90;;;;;;5093558;28;20231;-74
2023/04/01 10:46:19;;;;;;;6.03;3.10;;;8.60;99.90;;;;;;5093471;28;20238;-73
2023/04/01 10:49:18;;;;;;;0.83;0.77;;;8.70;99.90;;;;;;5076718;28;20231;-72
2023/04/01 10:52:13;;;;;;;2.83;1.57;;;8.70;99.90;;;;;;5091302;28;20242;-73
2023/04/01 10:54:48;;;;;;;2.27;1.30;;;8.80;99.90;;;;;;5093876;28;20221;-73
2023/04/01 10:57:41;;;;;;;2.00;0.77;;;8.90;99.90;;;;;;5093087;28;20310;-73
2023/04/01 11:00:46;;;;;;;0.97;0.70;;;8.80;99.90;;;;;;5093031;28;20256;-73
2023/04/01 11:03:55;;;;;;;1.17;0.90;;;8.70;99.90;;;;;;5093265;28;20200;-78
2023/04/01 11:06:59;;;;;;;6.10;4.23;;;8.80;99.90;;;;;;5092905;28;20659;-72
2023/04/01 11:09:52;;;;;;;2.10;0.93;;;9.10;99.90;;;;;;5062726;28;20698;-73
2023/04/01 11:12:43;;;;;;;7.03;4.27;;;9.10;99.90;;;;;;5093092;28;20224;-73
2023/04/01 11:15:38;;;;;;;0.97;0.67;;;9.20;99.90;;;;;;5092696;28;20224;-74
2023/04/01 11:18:39;;;;;;;1.07;0.90;;;9.20;99.90;;;;;;5093110;28;20247;-75
2023/04/01 11:21:38;;;;;;;0.60;0.60;;;8.90;99.90;;;;;;5092803;28;20224;-75
2023/04/01 11:24:27;;;;;;;1.20;1.10;;;8.50;99.90;;;;;;5092992;28;20231;-75
2023/04/01 11:27:09;;;;;;;1.70;1.00;;;8.60;99.90;;;;;;5093213;28;20199;-76
2023/04/01 11:30:06;;;;;;;1.73;0.73;;;8.50;99.90;;;;;;5093184;28;20618;-76
2023/04/01 11:32:47;;;;;;;1.20;0.90;;;8.50;99.90;;;;;;5084899;28;20253;-75
2023/04/01 11:35:42;;;;;;;1.27;0.80;;;8.50;99.90;;;;;;5092580;28;20259;-75
2023/04/01 11:38:25;;;;;;;1.47;0.90;;;8.70;99.90;;;;;;5092984;28;20196;-75
2023/04/01 11:40:57;;;;;;;1.30;0.83;;;8.50;99.90;;;;;;5092801;28;20630;-76
2023/04/01 11:43:34;;;;;;;0.97;0.87;;;8.70;99.90;;;;;;5092227;28;20196;-75
2023/04/01 11:46:10;;;;;;;0.80;0.77;;;8.70;99.90;;;;;;5092615;28;20234;-74
2023/04/01 11:48:53;;;;;;;1.80;0.80;;;8.70;99.90;;;;;;5092829;28;20223;-75
2023/04/01 11:51:43;;;;;;;1.97;1.03;;;8.70;99.90;;;;;;5092750;28;20207;-75
2023/04/01 11:54:26;;;;;;;1.00;0.90;;;8.60;99.90;;;;;;5092446;28;20729;-74
2023/04/01 11:57:07;;;;;;;1.57;1.10;;;8.60;99.90;;;;;;5092449;28;20554;-73
2023/04/01 12:00:02;;;;;;;1.53;0.93;;;8.50;99.90;;;;;;5092560;28;20604;-74
2023/04/01 12:02:41;;;;;;;1.00;0.90;;;8.60;99.90;;;;;;5092489;28;20568;-74
2023/04/01 12:05:41;;;;;;;0.87;0.83;;;8.50;99.90;;;;;;5092617;28;20230;-73
2023/04/01 12:08:21;;;;;;;2.83;1.23;;;8.40;99.90;;;;;;5092641;28;20246;-73
2023/04/01 12:10:57;;;;;;;1.63;1.00;;;8.50;99.90;;;;;;5092391;28;20287;-74
2023/04/01 12:13:33;;;;;;;0.93;0.70;;;8.50;99.90;;;;;;5092662;28;20263;-73
2023/04/01 12:16:12;;;;;;;1.73;1.00;;;8.50;99.90;;;;;;5092578;28;20238;-73
2023/04/01 12:18:43;;;;;;;1.80;0.90;;;8.40;99.90;;;;;;5092394;28;20193;-73
2023/04/01 12:21:23;;;;;;;1.77;0.90;;;8.40;99.90;;;;;;5092330;28;20223;-74
2023/04/01 12:24:26;;;;;;;1.53;1.03;;;8.60;99.90;;;;;;5091928;28;20207;-73
2023/04/01 12:27:06;;;;;;;1.00;0.90;;;8.60;99.90;;;;;;5094753;28;20230;-73
2023/04/01 12:29:58;;;;;;;1.20;0.80;;;8.70;99.90;;;;;;5095954;28;20619;-73
2023/04/01 12:32:36;;;;;;;0.70;0.70;;;8.70;99.90;;;;;;5095954;28;20204;-73
2023/04/01 12:35:21;;;;;;;1.17;0.80;;;8.70;99.90;;;;;;5095918;28;20263;-73
2023/04/01 12:37:58;;;;;;;1.43;1.00;;;8.70;99.90;;;;;;5096069;28;20207;-73
2023/04/01 12:40:46;;;;;;;0.70;0.70;;;8.80;99.90;;;;;;5095610;28;20297;-73
2023/04/01 12:43:35;;;;;;;0.67;0.60;;;8.90;99.90;;;;;;5080097;28;20200;-73
2023/04/01 12:46:13;;;;;;;0.60;0.60;;;9.00;99.90;;;;;;5096144;28;20208;-73
2023/04/01 12:49:16;;;;;;;1.13;0.90;;;9.00;99.90;;;;;;5095702;28;20229;-74
2023/04/01 12:51:56;;;;;;;0.70;0.70;;;9.10;99.90;;;;;;5070396;28;20227;-74
2023/04/01 12:55:05;;;;;;;1.80;0.60;;;9.00;99.90;;;;;;5095901;28;20228;-74
2023/04/01 12:57:58;;;;;;;4.53;3.37;;;9.00;99.90;;;;;;5096018;28;20249;-74
2023/04/01 13:00:39;;;;;;;1.60;1.50;;;9.10;99.90;;;;;;5095636;28;20232;-74
2023/04/01 13:03:25;;;;;;;0.80;0.60;;;9.20;99.90;;;;;;5095634;28;20200;-74
2023/04/01 13:06:11;;;;;;;1.73;0.80;;;9.20;99.90;;;;;;5095751;28;20196;-75
2023/04/01 13:08:45;;;;;;;0.93;0.93;;;9.10;99.90;;;;;;5095684;28;20231;-74
2023/04/01 13:11:20;;;;;;;0.90;0.90;;;8.90;99.90;;;;;;5095409;28;20224;-74
2023/04/01 13:14:32;;;;;;;1.10;0.97;;;8.90;99.90;;;;;;5095408;28;20223;-74
2023/04/01 13:17:07;;;;;;;1.40;1.00;;;9.00;99.90;;;;;;5095086;28;20196;-74
2023/04/01 13:19:40;;;;;;;1.70;1.60;;;9.00;99.90;;;;;;5095203;28;20220;-74
2023/04/01 13:22:15;;;;;;;0.70;0.70;;;8.80;99.90;;;;;;5095039;28;20220;-74
2023/04/01 13:24:47;;;;;;;0.90;0.90;;;8.90;99.90;;;;;;5095357;28;20219;-74
2023/04/01 13:27:19;;;;;;;1.00;0.90;;;9.20;99.90;;;;;;5095194;28;20228;-74
2023/04/01 13:30:03;;;;;;;0.97;0.90;;;9.30;99.90;;;;;;5095075;28;20204;-73
2023/04/01 13:32:37;;;;;;;0.90;0.90;;;9.40;99.90;;;;;;5094863;28;20224;-73
2023/04/01 13:35:18;;;;;;;0.60;0.60;;;9.50;99.90;;;;;;5094748;28;20231;-73
2023/04/01 13:38:01;;;;;;;1.13;1.00;;;9.50;99.90;;;;;;5094405;28;20224;-72
2023/04/01 13:40:40;;;;;;;0.70;0.70;;;9.80;99.90;;;;;;5094781;28;20578;-73
2023/04/01 13:43:14;;;;;;;0.50;0.50;;;9.90;99.90;;;;;;5094993;28;20199;-72
2023/04/01 13:46:04;;;;;;;0.60;0.60;;;9.50;99.90;;;;;;5094831;28;20664;-72
2023/04/01 13:48:50;;;;;;;0.70;0.70;;;9.40;99.90;;;;;;5094779;28;20226;-73